Terminal Aerodrome Forecast
Issued by NWS

Home | Current Version | Previous Version | Text Only | Print | Product List | Glossary On
Versions: 1 2 3 4 5 6 7 8 9 10 11 12 13 14 15 16 17 18 19 20 21 22 23 24
000
FTUS45 KGJT 041120
TAFCNY
TAF
KCNY 041120Z 0412/0512 12011KT P6SM VCSH BKN150
     FM041400 13010KT P6SM SCT150
     FM041800 23007KT P6SM SCT120
     FM042100 31008KT P6SM SCT100 BKN200
     FM050300 20012KT P6SM BKN100
     FM050900 16010KT P6SM BKN150=

USA.gov is the U.S. government's official web portal to all federal, state and local government web resources and services.